sensor_id;sensor_type;location;lat;lon;timestamp;P1;durP1;ratioP1;P2;durP2;ratioP2
29416;SDS011;28421;51.030;4.006;2023-01-28T00:11:25;22.23;;;13.48;;
29416;SDS011;28421;51.030;4.006;2023-01-28T00:13:50;23.65;;;14.13;;
29416;SDS011;28421;51.030;4.006;2023-01-28T00:16:20;24.80;;;13.32;;
29416;SDS011;28421;51.030;4.006;2023-01-28T00:18:54;20.48;;;12.27;;
29416;SDS011;28421;51.030;4.006;2023-01-28T00:21:20;22.17;;;12.63;;
29416;SDS011;28421;51.030;4.006;2023-01-28T00:23:47;22.88;;;13.27;;
29416;SDS011;28421;51.030;4.006;2023-01-28T00:26:42;24.65;;;14.07;;
29416;SDS011;28421;51.030;4.006;2023-01-28T00:29:55;24.55;;;12.98;;
29416;SDS011;28421;51.030;4.006;2023-01-28T05:35:42;20.90;;;11.95;;
29416;SDS011;28421;51.030;4.006;2023-01-28T05:38:11;16.25;;;10.05;;
29416;SDS011;28421;51.030;4.006;2023-01-28T05:40:46;19.20;;;11.27;;
29416;SDS011;28421;51.030;4.006;2023-01-28T05:43:19;18.42;;;11.43;;
29416;SDS011;28421;51.030;4.006;2023-01-28T05:49:16;19.20;;;11.23;;
29416;SDS011;28421;51.030;4.006;2023-01-28T05:51:47;20.90;;;13.23;;
29416;SDS011;28421;51.030;4.006;2023-01-28T05:54:18;20.55;;;11.82;;
29416;SDS011;28421;51.030;4.006;2023-01-28T05:57:24;27.85;;;15.35;;
29416;SDS011;28421;51.030;4.006;2023-01-28T06:00:19;21.58;;;14.52;;
29416;SDS011;28421;51.030;4.006;2023-01-28T06:03:08;21.23;;;12.18;;
29416;SDS011;28421;51.030;4.006;2023-01-28T06:05:57;18.35;;;11.63;;
29416;SDS011;28421;51.030;4.006;2023-01-28T06:08:57;21.38;;;13.38;;
29416;SDS011;28421;51.030;4.006;2023-01-28T06:11:26;22.52;;;12.73;;
29416;SDS011;28421;51.030;4.006;2023-01-28T06:18:00;21.70;;;13.43;;
29416;SDS011;28421;51.030;4.006;2023-01-28T06:20:47;24.75;;;13.40;;
29416;SDS011;28421;51.030;4.006;2023-01-28T06:23:14;23.77;;;14.15;;
29416;SDS011;28421;51.030;4.006;2023-01-28T06:25:44;21.15;;;12.30;;
29416;SDS011;28421;51.030;4.006;2023-01-28T06:29:10;27.50;;;14.90;;
29416;SDS011;28421;51.030;4.006;2023-01-28T06:31:45;30.23;;;15.55;;
29416;SDS011;28421;51.030;4.006;2023-01-28T06:34:54;22.73;;;13.20;;
29416;SDS011;28421;51.030;4.006;2023-01-28T06:37:31;38.72;;;19.58;;
29416;SDS011;28421;51.030;4.006;2023-01-28T06:40:30;35.35;;;18.70;;
29416;SDS011;28421;51.030;4.006;2023-01-28T06:43:46;35.22;;;16.67;;
29416;SDS011;28421;51.030;4.006;2023-01-28T06:46:29;29.23;;;16.65;;
29416;SDS011;28421;51.030;4.006;2023-01-28T06:49:56;31.85;;;17.23;;
29416;SDS011;28421;51.030;4.006;2023-01-28T06:52:31;29.02;;;16.15;;
29416;SDS011;28421;51.030;4.006;2023-01-28T06:55:16;33.97;;;20.17;;
29416;SDS011;28421;51.030;4.006;2023-01-28T06:58:35;27.40;;;17.45;;
29416;SDS011;28421;51.030;4.006;2023-01-28T07:01:01;33.03;;;18.20;;
29416;SDS011;28421;51.030;4.006;2023-01-28T07:03:26;31.90;;;18.42;;
29416;SDS011;28421;51.030;4.006;2023-01-28T07:05:51;36.58;;;18.77;;
29416;SDS011;28421;51.030;4.006;2023-01-28T07:08:17;39.05;;;21.52;;
29416;SDS011;28421;51.030;4.006;2023-01-28T07:10:42;37.97;;;19.10;;
29416;SDS011;28421;51.030;4.006;2023-01-28T07:13:08;33.15;;;17.33;;
29416;SDS011;28421;51.030;4.006;2023-01-28T07:15:34;26.70;;;16.98;;
29416;SDS011;28421;51.030;4.006;2023-01-28T07:18:00;34.90;;;18.65;;
29416;SDS011;28421;51.030;4.006;2023-01-28T07:20:25;40.97;;;23.63;;
29416;SDS011;28421;51.030;4.006;2023-01-28T07:22:51;32.17;;;16.88;;
29416;SDS011;28421;51.030;4.006;2023-01-28T07:25:16;27.80;;;15.75;;
29416;SDS011;28421;51.030;4.006;2023-01-28T07:27:49;25.05;;;12.95;;
29416;SDS011;28421;51.030;4.006;2023-01-28T07:30:17;29.63;;;15.05;;
29416;SDS011;28421;51.030;4.006;2023-01-28T07:32:43;25.83;;;15.43;;
29416;SDS011;28421;51.030;4.006;2023-01-28T07:35:09;25.63;;;14.18;;
29416;SDS011;28421;51.030;4.006;2023-01-28T07:37:35;31.35;;;17.08;;
29416;SDS011;28421;51.030;4.006;2023-01-28T07:40:01;22.90;;;12.68;;
29416;SDS011;28421;51.030;4.006;2023-01-28T07:42:27;21.95;;;12.40;;
29416;SDS011;28421;51.030;4.006;2023-01-28T07:44:52;20.83;;;12.70;;
29416;SDS011;28421;51.030;4.006;2023-01-28T07:47:18;33.97;;;15.82;;
29416;SDS011;28421;51.030;4.006;2023-01-28T07:49:43;25.05;;;13.20;;
29416;SDS011;28421;51.030;4.006;2023-01-28T07:52:09;22.70;;;11.75;;
29416;SDS011;28421;51.030;4.006;2023-01-28T07:54:35;22.63;;;12.80;;
29416;SDS011;28421;51.030;4.006;2023-01-28T07:57:00;19.98;;;11.95;;
29416;SDS011;28421;51.030;4.006;2023-01-28T07:59:26;22.38;;;11.50;;
29416;SDS011;28421;51.030;4.006;2023-01-28T08:01:51;27.17;;;13.65;;
29416;SDS011;28421;51.030;4.006;2023-01-28T08:04:18;21.13;;;11.45;;
29416;SDS011;28421;51.030;4.006;2023-01-28T08:06:43;22.27;;;13.18;;
29416;SDS011;28421;51.030;4.006;2023-01-28T08:09:09;22.67;;;12.02;;
29416;SDS011;28421;51.030;4.006;2023-01-28T08:11:36;29.10;;;15.88;;
29416;SDS011;28421;51.030;4.006;2023-01-28T08:14:03;22.85;;;13.68;;
29416;SDS011;28421;51.030;4.006;2023-01-28T08:16:29;20.25;;;12.15;;
29416;SDS011;28421;51.030;4.006;2023-01-28T08:18:55;24.02;;;12.80;;
29416;SDS011;28421;51.030;4.006;2023-01-28T08:21:20;24.75;;;13.30;;
29416;SDS011;28421;51.030;4.006;2023-01-28T08:23:46;25.48;;;13.45;;
29416;SDS011;28421;51.030;4.006;2023-01-28T08:26:11;27.90;;;14.75;;
29416;SDS011;28421;51.030;4.006;2023-01-28T08:28:37;21.30;;;12.23;;
29416;SDS011;28421;51.030;4.006;2023-01-28T08:31:02;23.88;;;13.68;;
29416;SDS011;28421;51.030;4.006;2023-01-28T08:33:28;30.75;;;14.40;;
29416;SDS011;28421;51.030;4.006;2023-01-28T08:35:54;24.33;;;14.02;;
29416;SDS011;28421;51.030;4.006;2023-01-28T08:38:19;25.48;;;13.85;;
29416;SDS011;28421;51.030;4.006;2023-01-28T08:40:45;21.95;;;13.18;;
29416;SDS011;28421;51.030;4.006;2023-01-28T08:43:11;19.95;;;12.05;;
29416;SDS011;28421;51.030;4.006;2023-01-28T08:45:38;22.88;;;12.45;;
29416;SDS011;28421;51.030;4.006;2023-01-28T08:48:04;23.38;;;13.40;;
29416;SDS011;28421;51.030;4.006;2023-01-28T08:50:32;21.92;;;12.50;;
29416;SDS011;28421;51.030;4.006;2023-01-28T08:53:00;22.50;;;13.07;;
29416;SDS011;28421;51.030;4.006;2023-01-28T08:55:29;22.10;;;12.77;;
29416;SDS011;28421;51.030;4.006;2023-01-28T08:57:54;22.80;;;12.60;;
29416;SDS011;28421;51.030;4.006;2023-01-28T09:00:20;26.30;;;14.05;;
29416;SDS011;28421;51.030;4.006;2023-01-28T09:02:46;25.48;;;14.50;;
29416;SDS011;28421;51.030;4.006;2023-01-28T09:05:15;22.98;;;12.82;;
29416;SDS011;28421;51.030;4.006;2023-01-28T09:07:41;24.95;;;12.93;;
29416;SDS011;28421;51.030;4.006;2023-01-28T09:10:07;21.88;;;12.63;;
29416;SDS011;28421;51.030;4.006;2023-01-28T09:12:33;25.35;;;13.45;;
29416;SDS011;28421;51.030;4.006;2023-01-28T09:14:59;23.30;;;12.48;;
29416;SDS011;28421;51.030;4.006;2023-01-28T09:17:24;20.85;;;11.68;;
29416;SDS011;28421;51.030;4.006;2023-01-28T09:19:50;33.97;;;14.73;;
29416;SDS011;28421;51.030;4.006;2023-01-28T09:22:16;25.30;;;12.00;;
29416;SDS011;28421;51.030;4.006;2023-01-28T09:24:44;26.00;;;13.00;;
29416;SDS011;28421;51.030;4.006;2023-01-28T09:27:10;21.48;;;12.55;;
29416;SDS011;28421;51.030;4.006;2023-01-28T09:29:35;44.28;;;17.85;;
29416;SDS011;28421;51.030;4.006;2023-01-28T09:32:02;29.88;;;13.82;;
29416;SDS011;28421;51.030;4.006;2023-01-28T09:34:28;22.10;;;12.85;;
29416;SDS011;28421;51.030;4.006;2023-01-28T09:36:53;23.05;;;13.32;;
29416;SDS011;28421;51.030;4.006;2023-01-28T09:39:19;26.33;;;12.88;;
29416;SDS011;28421;51.030;4.006;2023-01-28T09:50:06;67.50;;;27.98;;
29416;SDS011;28421;51.030;4.006;2023-01-28T09:52:36;36.97;;;17.05;;
29416;SDS011;28421;51.030;4.006;2023-01-28T09:57:54;25.92;;;14.85;;
29416;SDS011;28421;51.030;4.006;2023-01-28T10:00:31;28.58;;;14.88;;
29416;SDS011;28421;51.030;4.006;2023-01-28T10:05:59;30.30;;;14.05;;
29416;SDS011;28421;51.030;4.006;2023-01-28T10:20:05;30.88;;;15.93;;
29416;SDS011;28421;51.030;4.006;2023-01-28T10:22:45;23.05;;;13.13;;
29416;SDS011;28421;51.030;4.006;2023-01-28T10:25:16;25.95;;;14.48;;
29416;SDS011;28421;51.030;4.006;2023-01-28T10:27:44;26.10;;;14.02;;
29416;SDS011;28421;51.030;4.006;2023-01-28T10:30:16;26.17;;;14.93;;
29416;SDS011;28421;51.030;4.006;2023-01-28T10:32:51;23.83;;;13.73;;
29416;SDS011;28421;51.030;4.006;2023-01-28T10:35:20;27.83;;;14.73;;
29416;SDS011;28421;51.030;4.006;2023-01-28T10:37:46;30.35;;;14.48;;
29416;SDS011;28421;51.030;4.006;2023-01-28T10:40:13;27.65;;;14.65;;
29416;SDS011;28421;51.030;4.006;2023-01-28T10:42:40;27.55;;;15.30;;
29416;SDS011;28421;51.030;4.006;2023-01-28T10:45:08;26.67;;;13.55;;
29416;SDS011;28421;51.030;4.006;2023-01-28T10:50:48;28.48;;;14.60;;
29416;SDS011;28421;51.030;4.006;2023-01-28T10:53:17;29.98;;;16.38;;
29416;SDS011;28421;51.030;4.006;2023-01-28T10:55:48;28.40;;;14.13;;
29416;SDS011;28421;51.030;4.006;2023-01-28T10:58:17;24.95;;;13.90;;
29416;SDS011;28421;51.030;4.006;2023-01-28T11:00:45;29.23;;;13.98;;
29416;SDS011;28421;51.030;4.006;2023-01-28T11:03:17;23.90;;;12.60;;
29416;SDS011;28421;51.030;4.006;2023-01-28T11:05:49;25.13;;;14.13;;
29416;SDS011;28421;51.030;4.006;2023-01-28T11:08:16;25.58;;;14.85;;
29416;SDS011;28421;51.030;4.006;2023-01-28T11:10:43;25.40;;;14.55;;
29416;SDS011;28421;51.030;4.006;2023-01-28T11:15:46;23.48;;;13.77;;
29416;SDS011;28421;51.030;4.006;2023-01-28T11:18:15;25.77;;;14.18;;
29416;SDS011;28421;51.030;4.006;2023-01-28T11:20:48;24.45;;;13.57;;
29416;SDS011;28421;51.030;4.006;2023-01-28T11:23:25;28.38;;;14.15;;
29416;SDS011;28421;51.030;4.006;2023-01-28T11:26:01;29.63;;;14.50;;
29416;SDS011;28421;51.030;4.006;2023-01-28T11:28:30;22.35;;;13.30;;
29416;SDS011;28421;51.030;4.006;2023-01-28T11:30:56;26.73;;;15.20;;
29416;SDS011;28421;51.030;4.006;2023-01-28T11:33:43;21.77;;;13.50;;
29416;SDS011;28421;51.030;4.006;2023-01-28T11:36:13;21.23;;;12.35;;
29416;SDS011;28421;51.030;4.006;2023-01-28T11:38:48;23.42;;;12.20;;
29416;SDS011;28421;51.030;4.006;2023-01-28T11:41:15;22.08;;;11.52;;
29416;SDS011;28421;51.030;4.006;2023-01-28T11:43:44;22.25;;;12.13;;
29416;SDS011;28421;51.030;4.006;2023-01-28T11:53:58;23.63;;;11.02;;
29416;SDS011;28421;51.030;4.006;2023-01-28T11:56:56;22.33;;;11.90;;
29416;SDS011;28421;51.030;4.006;2023-01-28T11:59:40;22.00;;;10.98;;
29416;SDS011;28421;51.030;4.006;2023-01-28T12:10:31;19.08;;;9.45;;
29416;SDS011;28421;51.030;4.006;2023-01-28T12:15:46;13.73;;;8.88;;
29416;SDS011;28421;51.030;4.006;2023-01-28T12:21:29;11.95;;;7.50;;
29416;SDS011;28421;51.030;4.006;2023-01-28T12:29:17;14.82;;;8.20;;
29416;SDS011;28421;51.030;4.006;2023-01-28T12:43:04;9.32;;;6.60;;
29416;SDS011;28421;51.030;4.006;2023-01-28T12:45:38;9.50;;;5.43;;
29416;SDS011;28421;51.030;4.006;2023-01-28T12:48:10;10.30;;;6.70;;
29416;SDS011;28421;51.030;4.006;2023-01-28T12:53:22;7.68;;;6.00;;
29416;SDS011;28421;51.030;4.006;2023-01-28T12:55:54;7.38;;;5.18;;
29416;SDS011;28421;51.030;4.006;2023-01-28T12:58:36;8.07;;;5.90;;
29416;SDS011;28421;51.030;4.006;2023-01-28T13:01:08;9.70;;;6.55;;
29416;SDS011;28421;51.030;4.006;2023-01-28T13:03:48;7.97;;;4.97;;
29416;SDS011;28421;51.030;4.006;2023-01-28T13:08:58;12.35;;;5.93;;
29416;SDS011;28421;51.030;4.006;2023-01-28T13:11:29;16.40;;;6.68;;
29416;SDS011;28421;51.030;4.006;2023-01-28T13:14:00;7.85;;;6.00;;
29416;SDS011;28421;51.030;4.006;2023-01-28T13:16:27;8.38;;;5.75;;
29416;SDS011;28421;51.030;4.006;2023-01-28T13:18:53;6.03;;;5.43;;
29416;SDS011;28421;51.030;4.006;2023-01-28T13:21:31;8.00;;;5.53;;
29416;SDS011;28421;51.030;4.006;2023-01-28T13:31:40;19.27;;;5.65;;
29416;SDS011;28421;51.030;4.006;2023-01-28T13:34:10;9.18;;;5.95;;
29416;SDS011;28421;51.030;4.006;2023-01-28T13:36:51;8.88;;;6.47;;
29416;SDS011;28421;51.030;4.006;2023-01-28T13:39:21;14.50;;;5.60;;
29416;SDS011;28421;51.030;4.006;2023-01-28T13:41:53;7.78;;;5.45;;
29416;SDS011;28421;51.030;4.006;2023-01-28T13:44:39;7.45;;;5.30;;
29416;SDS011;28421;51.030;4.006;2023-01-28T13:52:12;13.93;;;6.38;;
29416;SDS011;28421;51.030;4.006;2023-01-28T13:54:44;10.65;;;6.15;;
29416;SDS011;28421;51.030;4.006;2023-01-28T14:13:54;8.38;;;6.53;;
29416;SDS011;28421;51.030;4.006;2023-01-28T14:19:25;11.77;;;7.13;;
29416;SDS011;28421;51.030;4.006;2023-01-28T14:21:54;10.38;;;6.82;;
29416;SDS011;28421;51.030;4.006;2023-01-28T14:24:20;11.02;;;7.50;;
29416;SDS011;28421;51.030;4.006;2023-01-28T14:26:52;10.80;;;7.18;;
29416;SDS011;28421;51.030;4.006;2023-01-28T14:29:44;18.27;;;7.60;;
29416;SDS011;28421;51.030;4.006;2023-01-28T14:32:27;10.63;;;6.75;;
29416;SDS011;28421;51.030;4.006;2023-01-28T14:34:55;9.70;;;5.90;;
29416;SDS011;28421;51.030;4.006;2023-01-28T14:37:24;11.50;;;6.72;;
29416;SDS011;28421;51.030;4.006;2023-01-28T14:40:05;10.75;;;6.75;;
29416;SDS011;28421;51.030;4.006;2023-01-28T14:42:39;11.13;;;6.53;;
29416;SDS011;28421;51.030;4.006;2023-01-28T14:45:10;17.27;;;6.80;;
29416;SDS011;28421;51.030;4.006;2023-01-28T14:47:59;7.72;;;6.15;;
29416;SDS011;28421;51.030;4.006;2023-01-28T14:50:41;12.50;;;6.80;;
29416;SDS011;28421;51.030;4.006;2023-01-28T14:59:09;13.55;;;7.70;;
29416;SDS011;28421;51.030;4.006;2023-01-28T15:01:46;13.02;;;7.38;;
29416;SDS011;28421;51.030;4.006;2023-01-28T15:04:46;12.02;;;7.65;;
29416;SDS011;28421;51.030;4.006;2023-01-28T15:07:15;16.23;;;8.88;;
29416;SDS011;28421;51.030;4.006;2023-01-28T15:09:43;13.95;;;7.57;;
29416;SDS011;28421;51.030;4.006;2023-01-28T15:12:09;11.85;;;7.50;;
29416;SDS011;28421;51.030;4.006;2023-01-28T15:14:35;14.18;;;8.60;;
29416;SDS011;28421;51.030;4.006;2023-01-28T15:17:01;13.40;;;7.80;;
29416;SDS011;28421;51.030;4.006;2023-01-28T15:19:34;11.13;;;8.05;;
29416;SDS011;28421;51.030;4.006;2023-01-28T15:22:05;11.60;;;8.25;;
29416;SDS011;28421;51.030;4.006;2023-01-28T15:24:35;13.00;;;7.95;;
29416;SDS011;28421;51.030;4.006;2023-01-28T15:27:01;11.73;;;7.22;;
29416;SDS011;28421;51.030;4.006;2023-01-28T15:31:57;18.52;;;9.75;;
29416;SDS011;28421;51.030;4.006;2023-01-28T15:34:23;22.63;;;10.25;;
29416;SDS011;28421;51.030;4.006;2023-01-28T15:36:54;15.77;;;9.15;;
29416;SDS011;28421;51.030;4.006;2023-01-28T15:39:24;16.60;;;8.82;;
29416;SDS011;28421;51.030;4.006;2023-01-28T15:41:56;12.20;;;7.70;;
29416;SDS011;28421;51.030;4.006;2023-01-28T15:44:28;12.57;;;7.43;;
29416;SDS011;28421;51.030;4.006;2023-01-28T15:46:57;15.18;;;8.60;;
29416;SDS011;28421;51.030;4.006;2023-01-28T15:49:26;18.02;;;10.73;;
29416;SDS011;28421;51.030;4.006;2023-01-28T15:51:58;21.23;;;13.67;;
29416;SDS011;28421;51.030;4.006;2023-01-28T15:54:24;27.77;;;14.93;;
29416;SDS011;28421;51.030;4.006;2023-01-28T15:56:50;23.83;;;14.15;;
29416;SDS011;28421;51.030;4.006;2023-01-28T15:59:26;19.77;;;12.05;;
29416;SDS011;28421;51.030;4.006;2023-01-28T16:04:57;22.40;;;14.05;;
29416;SDS011;28421;51.030;4.006;2023-01-28T16:07:25;21.15;;;13.73;;
29416;SDS011;28421;51.030;4.006;2023-01-28T16:09:52;22.63;;;13.30;;
29416;SDS011;28421;51.030;4.006;2023-01-28T16:12:20;18.45;;;11.88;;
29416;SDS011;28421;51.030;4.006;2023-01-28T16:14:53;24.65;;;11.93;;
29416;SDS011;28421;51.030;4.006;2023-01-28T16:19:49;17.17;;;11.10;;
29416;SDS011;28421;51.030;4.006;2023-01-28T16:22:31;19.70;;;11.25;;
29416;SDS011;28421;51.030;4.006;2023-01-28T16:27:45;17.25;;;9.73;;
29416;SDS011;28421;51.030;4.006;2023-01-28T16:30:10;14.35;;;9.15;;
29416;SDS011;28421;51.030;4.006;2023-01-28T16:32:36;13.82;;;8.95;;
29416;SDS011;28421;51.030;4.006;2023-01-28T16:35:05;12.35;;;8.80;;
29416;SDS011;28421;51.030;4.006;2023-01-28T16:37:37;19.70;;;9.50;;
29416;SDS011;28421;51.030;4.006;2023-01-28T16:40:03;17.08;;;9.95;;
29416;SDS011;28421;51.030;4.006;2023-01-28T16:42:30;17.63;;;9.15;;
29416;SDS011;28421;51.030;4.006;2023-01-28T16:44:56;11.95;;;8.85;;
29416;SDS011;28421;51.030;4.006;2023-01-28T16:47:22;14.55;;;8.25;;
29416;SDS011;28421;51.030;4.006;2023-01-28T16:49:47;12.48;;;9.32;;
29416;SDS011;28421;51.030;4.006;2023-01-28T16:52:13;16.90;;;10.20;;
29416;SDS011;28421;51.030;4.006;2023-01-28T16:54:38;15.80;;;8.35;;
29416;SDS011;28421;51.030;4.006;2023-01-28T16:57:07;11.40;;;7.65;;
29416;SDS011;28421;51.030;4.006;2023-01-28T16:59:42;21.38;;;11.73;;
29416;SDS011;28421;51.030;4.006;2023-01-28T17:02:12;28.85;;;12.18;;
29416;SDS011;28421;51.030;4.006;2023-01-28T17:04:38;23.58;;;12.88;;
29416;SDS011;28421;51.030;4.006;2023-01-28T17:07:05;27.08;;;12.70;;
29416;SDS011;28421;51.030;4.006;2023-01-28T17:09:31;27.65;;;14.77;;
29416;SDS011;28421;51.030;4.006;2023-01-28T17:11:56;25.02;;;14.00;;
29416;SDS011;28421;51.030;4.006;2023-01-28T17:14:23;29.58;;;14.52;;
29416;SDS011;28421;51.030;4.006;2023-01-28T17:16:48;26.85;;;17.65;;
29416;SDS011;28421;51.030;4.006;2023-01-28T17:19:17;32.72;;;16.60;;
29416;SDS011;28421;51.030;4.006;2023-01-28T17:21:43;31.98;;;17.35;;
29416;SDS011;28421;51.030;4.006;2023-01-28T17:24:08;23.65;;;15.10;;
29416;SDS011;28421;51.030;4.006;2023-01-28T17:26:34;27.90;;;15.63;;
29416;SDS011;28421;51.030;4.006;2023-01-28T17:29:01;31.17;;;16.13;;
29416;SDS011;28421;51.030;4.006;2023-01-28T17:31:29;31.35;;;16.13;;
29416;SDS011;28421;51.030;4.006;2023-01-28T17:33:55;39.78;;;20.63;;
29416;SDS011;28421;51.030;4.006;2023-01-28T17:36:22;38.72;;;20.73;;
29416;SDS011;28421;51.030;4.006;2023-01-28T17:38:49;51.28;;;20.95;;
29416;SDS011;28421;51.030;4.006;2023-01-28T17:41:15;45.92;;;20.45;;
29416;SDS011;28421;51.030;4.006;2023-01-28T17:43:49;40.97;;;21.20;;
29416;SDS011;28421;51.030;4.006;2023-01-28T17:46:18;36.40;;;20.70;;
29416;SDS011;28421;51.030;4.006;2023-01-28T17:48:45;35.63;;;18.75;;
29416;SDS011;28421;51.030;4.006;2023-01-28T17:51:11;32.70;;;17.58;;
29416;SDS011;28421;51.030;4.006;2023-01-28T17:53:37;35.47;;;18.25;;
29416;SDS011;28421;51.030;4.006;2023-01-28T17:56:03;32.97;;;17.08;;
29416;SDS011;28421;51.030;4.006;2023-01-28T17:58:29;35.88;;;17.88;;
29416;SDS011;28421;51.030;4.006;2023-01-28T18:01:18;33.55;;;16.42;;
29416;SDS011;28421;51.030;4.006;2023-01-28T18:03:50;25.50;;;15.32;;
29416;SDS011;28421;51.030;4.006;2023-01-28T18:06:22;26.55;;;14.65;;
29416;SDS011;28421;51.030;4.006;2023-01-28T18:09:09;29.00;;;15.52;;
29416;SDS011;28421;51.030;4.006;2023-01-28T18:11:37;27.70;;;15.20;;
29416;SDS011;28421;51.030;4.006;2023-01-28T18:15:13;27.75;;;14.90;;
29416;SDS011;28421;51.030;4.006;2023-01-28T18:17:45;24.55;;;13.90;;
29416;SDS011;28421;51.030;4.006;2023-01-28T18:20:18;27.15;;;14.77;;
29416;SDS011;28421;51.030;4.006;2023-01-28T18:22:57;28.88;;;14.80;;
29416;SDS011;28421;51.030;4.006;2023-01-28T18:25:30;32.35;;;15.98;;
29416;SDS011;28421;51.030;4.006;2023-01-28T18:28:16;29.30;;;16.02;;
29416;SDS011;28421;51.030;4.006;2023-01-28T18:30:42;34.17;;;17.23;;
29416;SDS011;28421;51.030;4.006;2023-01-28T18:33:07;33.17;;;16.90;;
29416;SDS011;28421;51.030;4.006;2023-01-28T18:35:33;37.28;;;19.48;;
29416;SDS011;28421;51.030;4.006;2023-01-28T18:37:58;44.28;;;21.02;;
29416;SDS011;28421;51.030;4.006;2023-01-28T18:40:27;50.45;;;21.63;;
29416;SDS011;28421;51.030;4.006;2023-01-28T18:43:36;36.38;;;17.98;;
29416;SDS011;28421;51.030;4.006;2023-01-28T18:46:36;38.58;;;18.48;;
29416;SDS011;28421;51.030;4.006;2023-01-28T18:49:02;70.63;;;30.15;;
29416;SDS011;28421;51.030;4.006;2023-01-28T18:51:54;53.75;;;23.75;;
29416;SDS011;28421;51.030;4.006;2023-01-28T18:54:31;53.45;;;23.70;;
29416;SDS011;28421;51.030;4.006;2023-01-28T18:57:08;60.05;;;25.35;;
29416;SDS011;28421;51.030;4.006;2023-01-28T18:59:49;49.05;;;22.40;;
29416;SDS011;28421;51.030;4.006;2023-01-28T19:02:19;55.55;;;24.40;;
29416;SDS011;28421;51.030;4.006;2023-01-28T19:04:45;53.60;;;25.48;;
29416;SDS011;28421;51.030;4.006;2023-01-28T19:07:10;60.30;;;28.35;;
29416;SDS011;28421;51.030;4.006;2023-01-28T19:09:36;55.15;;;25.80;;
29416;SDS011;28421;51.030;4.006;2023-01-28T19:12:02;56.40;;;26.70;;
29416;SDS011;28421;51.030;4.006;2023-01-28T19:14:44;53.20;;;25.33;;
29416;SDS011;28421;51.030;4.006;2023-01-28T19:17:09;56.72;;;26.45;;
29416;SDS011;28421;51.030;4.006;2023-01-28T19:19:47;55.70;;;25.48;;
29416;SDS011;28421;51.030;4.006;2023-01-28T19:22:16;52.60;;;23.42;;
29416;SDS011;28421;51.030;4.006;2023-01-28T19:24:41;57.22;;;25.92;;
29416;SDS011;28421;51.030;4.006;2023-01-28T19:27:07;50.10;;;25.30;;
29416;SDS011;28421;51.030;4.006;2023-01-28T19:29:41;51.30;;;23.45;;
29416;SDS011;28421;51.030;4.006;2023-01-28T19:32:12;51.72;;;23.77;;
29416;SDS011;28421;51.030;4.006;2023-01-28T19:35:38;43.08;;;21.80;;
29416;SDS011;28421;51.030;4.006;2023-01-28T19:38:12;43.38;;;22.20;;
29416;SDS011;28421;51.030;4.006;2023-01-28T19:44:48;42.88;;;18.92;;
29416;SDS011;28421;51.030;4.006;2023-01-28T19:48:07;42.95;;;21.23;;
29416;SDS011;28421;51.030;4.006;2023-01-28T19:50:32;35.92;;;19.40;;
29416;SDS011;28421;51.030;4.006;2023-01-28T19:53:27;41.65;;;21.73;;
29416;SDS011;28421;51.030;4.006;2023-01-28T19:56:04;40.42;;;20.70;;
29416;SDS011;28421;51.030;4.006;2023-01-28T19:58:37;51.45;;;25.00;;
29416;SDS011;28421;51.030;4.006;2023-01-28T20:01:07;47.17;;;22.35;;
29416;SDS011;28421;51.030;4.006;2023-01-28T20:03:40;41.05;;;23.70;;
29416;SDS011;28421;51.030;4.006;2023-01-28T20:07:08;39.40;;;20.23;;
29416;SDS011;28421;51.030;4.006;2023-01-28T20:09:37;46.67;;;22.58;;
29416;SDS011;28421;51.030;4.006;2023-01-28T20:12:02;38.97;;;21.13;;
29416;SDS011;28421;51.030;4.006;2023-01-28T20:14:28;45.25;;;20.70;;
29416;SDS011;28421;51.030;4.006;2023-01-28T20:16:53;44.80;;;21.80;;
29416;SDS011;28421;51.030;4.006;2023-01-28T20:22:52;46.75;;;22.42;;
29416;SDS011;28421;51.030;4.006;2023-01-28T20:25:18;46.08;;;25.13;;
29416;SDS011;28421;51.030;4.006;2023-01-28T20:27:43;44.85;;;23.65;;
29416;SDS011;28421;51.030;4.006;2023-01-28T20:30:11;41.38;;;21.13;;
29416;SDS011;28421;51.030;4.006;2023-01-28T20:32:37;42.03;;;23.40;;
29416;SDS011;28421;51.030;4.006;2023-01-28T20:35:02;58.88;;;29.23;;
29416;SDS011;28421;51.030;4.006;2023-01-28T20:37:34;44.80;;;24.58;;
29416;SDS011;28421;51.030;4.006;2023-01-28T20:40:44;51.45;;;24.40;;
29416;SDS011;28421;51.030;4.006;2023-01-28T20:43:11;48.25;;;26.05;;
29416;SDS011;28421;51.030;4.006;2023-01-28T20:45:37;43.95;;;24.95;;
29416;SDS011;28421;51.030;4.006;2023-01-28T20:48:02;49.17;;;26.20;;
29416;SDS011;28421;51.030;4.006;2023-01-28T21:02:32;45.55;;;25.08;;
29416;SDS011;28421;51.030;4.006;2023-01-28T21:05:30;57.30;;;27.52;;
29416;SDS011;28421;51.030;4.006;2023-01-28T21:08:28;47.17;;;25.52;;
29416;SDS011;28421;51.030;4.006;2023-01-28T21:11:59;50.25;;;26.08;;
29416;SDS011;28421;51.030;4.006;2023-01-28T21:19:13;43.22;;;24.48;;
29416;SDS011;28421;51.030;4.006;2023-01-28T21:22:16;46.90;;;25.90;;
29416;SDS011;28421;51.030;4.006;2023-01-28T21:25:38;55.92;;;24.80;;
29416;SDS011;28421;51.030;4.006;2023-01-28T21:29:05;55.03;;;26.45;;
29416;SDS011;28421;51.030;4.006;2023-01-28T21:31:30;54.20;;;25.92;;
29416;SDS011;28421;51.030;4.006;2023-01-28T21:33:56;52.28;;;27.50;;
29416;SDS011;28421;51.030;4.006;2023-01-28T21:36:50;45.63;;;25.05;;
29416;SDS011;28421;51.030;4.006;2023-01-28T21:39:32;60.92;;;29.77;;
29416;SDS011;28421;51.030;4.006;2023-01-28T21:42:16;63.28;;;26.52;;
29416;SDS011;28421;51.030;4.006;2023-01-28T21:45:09;47.97;;;25.90;;
29416;SDS011;28421;51.030;4.006;2023-01-28T21:47:42;57.30;;;30.25;;
29416;SDS011;28421;51.030;4.006;2023-01-28T21:58:20;54.90;;;29.00;;
29416;SDS011;28421;51.030;4.006;2023-01-28T22:01:23;54.85;;;28.45;;
29416;SDS011;28421;51.030;4.006;2023-01-28T22:04:40;58.22;;;27.52;;
29416;SDS011;28421;51.030;4.006;2023-01-28T22:07:27;59.95;;;31.15;;
29416;SDS011;28421;51.030;4.006;2023-01-28T22:10:01;59.42;;;29.10;;
29416;SDS011;28421;51.030;4.006;2023-01-28T22:13:18;54.13;;;29.20;;
29416;SDS011;28421;51.030;4.006;2023-01-28T22:15:44;57.80;;;27.92;;
29416;SDS011;28421;51.030;4.006;2023-01-28T22:18:09;66.72;;;31.42;;
29416;SDS011;28421;51.030;4.006;2023-01-28T22:20:35;62.45;;;31.77;;
29416;SDS011;28421;51.030;4.006;2023-01-28T22:23:53;57.17;;;29.00;;
29416;SDS011;28421;51.030;4.006;2023-01-28T22:30:05;58.03;;;29.65;;
29416;SDS011;28421;51.030;4.006;2023-01-28T22:33:07;56.35;;;29.02;;
29416;SDS011;28421;51.030;4.006;2023-01-28T22:54:21;53.30;;;25.63;;
29416;SDS011;28421;51.030;4.006;2023-01-28T23:11:55;52.47;;;26.27;;
29416;SDS011;28421;51.030;4.006;2023-01-28T23:14:21;48.05;;;25.80;;
29416;SDS011;28421;51.030;4.006;2023-01-28T23:17:05;55.35;;;28.23;;
29416;SDS011;28421;51.030;4.006;2023-01-28T23:19:49;51.13;;;26.70;;
29416;SDS011;28421;51.030;4.006;2023-01-28T23:22:46;54.88;;;25.75;;
29416;SDS011;28421;51.030;4.006;2023-01-28T23:25:30;36.33;;;20.40;;
29416;SDS011;28421;51.030;4.006;2023-01-28T23:27:56;56.35;;;29.77;;
29416;SDS011;28421;51.030;4.006;2023-01-28T23:30:21;58.38;;;29.33;;
29416;SDS011;28421;51.030;4.006;2023-01-28T23:32:49;55.38;;;30.17;;
29416;SDS011;28421;51.030;4.006;2023-01-28T23:35:17;68.70;;;32.45;;
29416;SDS011;28421;51.030;4.006;2023-01-28T23:37:44;64.55;;;31.02;;
29416;SDS011;28421;51.030;4.006;2023-01-28T23:40:10;65.15;;;34.67;;